CheckWX is a tool to help pilots better visualize weather data.  It is not intended as a substitute for an official pre-flight weather briefing.

12:18:09 UTC

RPLB TAF
Subic Bay International Airport
Olongapo City, Philippines
TAF RPLB 221100Z 2212/2312 09007KT 9999 FEW020 TX32/2306Z TN22/2222Z TEMPO 2212/2218 VRB02KT SCT020

Feb-22@
12:00 UTC

Feb-22 @ 12:00 UTC

Feb-23@
12:00 UTC

Feb-23 @ 12:00 UTC

TAF RPLB 221100Z 2212/2312 09007KT 9999 FEW020 TX32/2306Z TN22/2222Z
Wind
  • 090° at 7 KTS
Cloud Levels
  • Few at 2,000' AGL

Feb-22@
12:00 UTC

Feb-22 @ 12:00 UTC

Feb-22@
18:00 UTC

Feb-22 @ 18:00 UTC

TEMPO 2212/2218 VRB02KT SCT020

Temporary

TemporaryChanges expected for less than half the time period

Wind
  • Variable at 2 KTS
Cloud Levels
  • Scattered at 2,000' AGL